Time;durP1;ratioP1;P1;durP2;ratioP2;P2;SDS_P1;SDS_P2;PMS_P1;PMS_P2;Temp;Humidity;BMP_temperature;BMP_pressure;BME280_temperature;BME280_humidity;BME280_pressure;Samples;Min_cycle;Max_cycle;Signal;HPM_P1;HPM_P2
2023/06/12 00:00:05;;;;;;;6.55;2.40;;;20.50;88.80;;;;;;5044047;28;20068;-78
2023/06/12 00:02:31;;;;;;;9.95;2.25;;;20.40;88.80;;;;;;5037097;28;20053;-81
2023/06/12 00:04:57;;;;;;;6.60;2.25;;;21.30;89.40;;;;;;5036267;28;20041;-80
2023/06/12 00:07:25;;;;;;;6.47;1.90;;;20.40;89.10;;;;;;5039379;28;20111;-80
2023/06/12 00:09:51;;;;;;;7.70;2.22;;;20.30;89.30;;;;;;5040314;28;20505;-81
2023/06/12 00:12:17;;;;;;;2.22;1.60;;;20.30;89.50;;;;;;5022579;28;20049;-80
2023/06/12 00:14:43;;;;;;;5.45;1.90;;;20.90;90.00;;;;;;5039921;28;20124;-81
2023/06/12 00:17:08;;;;;;;8.98;2.10;;;20.20;89.60;;;;;;5038563;28;20042;-80
2023/06/12 00:19:34;;;;;;;6.38;2.17;;;20.10;89.90;;;;;;5040449;28;20488;-80
2023/06/12 00:22:01;;;;;;;3.58;1.95;;;20.30;90.00;;;;;;5040022;28;20091;-81
2023/06/12 00:24:27;;;;;;;6.43;1.95;;;20.80;90.20;;;;;;5036940;28;20111;-81
2023/06/12 00:26:53;;;;;;;2.67;1.77;;;20.00;90.10;;;;;;5042435;28;20485;-80
2023/06/12 00:29:18;;;;;;;7.80;2.30;;;20.00;90.10;;;;;;5044829;28;20072;-80
2023/06/12 00:31:44;;;;;;;5.78;2.20;;;19.90;90.20;;;;;;5049399;28;20041;-80
2023/06/12 00:34:10;;;;;;;4.40;2.13;;;19.80;90.30;;;;;;5039973;28;20496;-81
2023/06/12 00:36:35;;;;;;;3.13;1.88;;;19.70;90.40;;;;;;5034713;28;20053;-81
2023/06/12 00:39:03;;;;;;;4.95;2.25;;;19.80;90.50;;;;;;5043930;28;20501;-79
2023/06/12 00:41:28;;;;;;;3.90;1.83;;;19.70;90.50;;;;;;5039407;28;20060;-81
2023/06/12 00:43:54;;;;;;;4.10;1.80;;;19.80;90.60;;;;;;5046546;28;20440;-80
2023/06/12 00:46:21;;;;;;;3.75;1.70;;;19.60;90.70;;;;;;5041744;28;20523;-80
2023/06/12 00:48:47;;;;;;;4.63;1.88;;;19.50;90.70;;;;;;5044673;28;20033;-80
2023/06/12 00:51:13;;;;;;;5.28;2.03;;;19.50;90.90;;;;;;5042248;28;20573;-79
2023/06/12 00:53:38;;;;;;;7.35;1.80;;;19.50;90.90;;;;;;5038426;28;20124;-81
2023/06/12 00:56:04;;;;;;;4.82;1.60;;;19.40;91.00;;;;;;5046872;28;20517;-82
2023/06/12 00:58:30;;;;;;;4.90;1.92;;;19.50;91.00;;;;;;5039885;28;20512;-80
2023/06/12 01:00:56;;;;;;;7.18;2.40;;;19.40;91.30;;;;;;5045842;28;20095;-81
2023/06/12 01:03:24;;;;;;;10.60;2.17;;;19.40;91.10;;;;;;5040599;28;20051;-81
2023/06/12 01:05:52;;;;;;;2.47;2.10;;;19.30;91.20;;;;;;5044975;28;20035;-80
2023/06/12 01:08:21;;;;;;;7.20;2.58;;;19.20;91.30;;;;;;5041958;28;20045;-80
2023/06/12 01:10:56;;;;;;;3.78;2.00;;;19.20;91.40;;;;;;5043723;28;20045;-80
2023/06/12 01:13:22;;;;;;;7.88;2.67;;;19.20;91.50;;;;;;5040788;28;20045;-81
2023/06/12 01:15:48;;;;;;;4.90;2.03;;;19.10;91.50;;;;;;5043241;28;20499;-81
2023/06/12 01:18:15;;;;;;;4.85;2.25;;;19.20;91.70;;;;;;5040690;28;20152;-80
2023/06/12 01:20:42;;;;;;;6.55;2.42;;;19.10;91.70;;;;;;5037724;28;20556;-81
2023/06/12 01:23:31;;;;;;;1.60;1.48;;;19.00;91.80;;;;;;5045624;28;20053;-80
2023/06/12 01:26:18;;;;;;;6.13;2.05;;;19.00;91.90;;;;;;5037837;28;20046;-81
2023/06/12 01:29:11;;;;;;;4.20;1.90;;;18.90;92.00;;;;;;5039249;28;20533;-80
2023/06/12 01:31:56;;;;;;;3.28;1.80;;;18.90;92.00;;;;;;5038754;28;20460;-81
2023/06/12 01:34:29;;;;;;;3.70;1.70;;;18.90;92.00;;;;;;5046850;28;20045;-81
2023/06/12 01:37:22;;;;;;;4.63;2.00;;;18.80;92.10;;;;;;5045166;28;20098;-81
2023/06/12 01:39:57;;;;;;;7.22;2.13;;;18.80;92.20;;;;;;5036875;28;20053;-81
2023/06/12 01:42:25;;;;;;;7.28;2.33;;;18.80;92.50;;;;;;5046619;28;20056;-80
2023/06/12 01:44:50;;;;;;;11.75;2.35;;;19.00;92.30;;;;;;5043913;28;20040;-81
2023/06/12 01:47:16;;;;;;;6.82;2.10;;;18.70;92.30;;;;;;5041995;28;20037;-81
2023/06/12 01:49:42;;;;;;;5.63;1.58;;;18.70;92.30;;;;;;5042194;28;20116;-81
2023/06/12 01:52:07;;;;;;;4.25;1.90;;;18.70;92.40;;;;;;5040704;28;20053;-81
2023/06/12 01:54:33;;;;;;;4.05;2.10;;;18.60;92.40;;;;;;5039343;28;20041;-81
2023/06/12 01:57:01;;;;;;;3.67;2.33;;;18.60;92.50;;;;;;5038661;28;20088;-81
2023/06/12 01:59:26;;;;;;;5.28;2.33;;;18.90;92.50;;;;;;5037544;28;20029;-80
2023/06/12 02:01:52;;;;;;;7.75;2.35;;;18.60;92.60;;;;;;5045040;28;20357;-81
2023/06/12 02:04:19;;;;;;;5.80;2.47;;;18.60;92.60;;;;;;5047055;28;20037;-81
2023/06/12 02:06:45;;;;;;;7.68;2.15;;;18.60;92.60;;;;;;5043675;28;20088;-81
2023/06/12 02:09:11;;;;;;;5.53;2.13;;;18.60;92.70;;;;;;5051686;28;20527;-80
2023/06/12 02:11:37;;;;;;;6.20;2.10;;;18.40;92.70;;;;;;5044377;28;20041;-80
2023/06/12 02:14:02;;;;;;;3.63;2.70;;;18.50;92.80;;;;;;5037107;28;20121;-81
2023/06/12 02:16:30;;;;;;;11.40;2.20;;;18.50;92.80;;;;;;5038383;28;20088;-80
2023/06/12 02:18:55;;;;;;;3.75;1.65;;;18.50;92.90;;;;;;5041820;28;20047;-79
2023/06/12 02:21:22;;;;;;;5.25;2.38;;;18.50;92.90;;;;;;5039672;28;20037;-80
2023/06/12 02:23:47;;;;;;;4.95;2.17;;;18.80;93.00;;;;;;5042538;28;20249;-81
2023/06/12 02:26:13;;;;;;;5.18;1.88;;;18.50;93.00;;;;;;5041273;28;20044;-81
2023/06/12 02:28:41;;;;;;;4.95;1.95;;;18.50;93.00;;;;;;5037343;28;20064;-81
2023/06/12 02:31:07;;;;;;;7.05;2.00;;;18.40;93.00;;;;;;5044527;28;20040;-81
2023/06/12 02:33:33;;;;;;;5.85;2.00;;;18.50;93.10;;;;;;5038855;28;20583;-79
2023/06/12 02:35:59;;;;;;;6.03;2.10;;;18.40;93.10;;;;;;5043318;28;20120;-80
2023/06/12 02:38:26;;;;;;;4.43;1.85;;;18.40;93.20;;;;;;5040919;28;20063;-79
2023/06/12 02:40:51;;;;;;;4.72;1.92;;;18.40;93.20;;;;;;5039808;28;20454;-80
2023/06/12 02:43:17;;;;;;;7.25;2.30;;;18.20;93.30;;;;;;5040496;28;20097;-80
2023/06/12 02:45:43;;;;;;;11.52;2.30;;;18.20;93.50;;;;;;5037990;28;20069;-81
2023/06/12 02:48:08;;;;;;;10.65;2.10;;;18.60;93.80;;;;;;5043916;28;20037;-81
2023/06/12 02:50:34;;;;;;;4.55;2.33;;;18.10;93.70;;;;;;5038655;28;20048;-81
2023/06/12 02:53:00;;;;;;;5.53;1.98;;;19.30;94.00;;;;;;5043506;28;20504;-81
2023/06/12 02:55:25;;;;;;;4.75;2.10;;;18.10;93.80;;;;;;5038950;28;20044;-80
2023/06/12 02:57:53;;;;;;;5.35;2.17;;;18.10;93.90;;;;;;5041999;28;20041;-80
2023/06/12 03:00:18;;;;;;;5.20;2.08;;;18.00;94.00;;;;;;5040406;28;20037;-79
2023/06/12 03:02:47;;;;;;;4.97;2.00;;;18.00;94.00;;;;;;5035048;28;20144;-81
2023/06/12 03:05:14;;;;;;;4.97;2.00;;;18.00;94.10;;;;;;5045001;28;20492;-80
2023/06/12 03:07:41;;;;;;;9.15;2.28;;;18.20;94.10;;;;;;5038398;28;20049;-80
2023/06/12 03:10:08;;;;;;;3.55;2.10;;;18.10;94.20;;;;;;5043404;28;20106;-81
2023/06/12 03:12:34;;;;;;;4.05;1.95;;;18.00;94.30;;;;;;5040592;28;20109;-80
2023/06/12 03:15:01;;;;;;;3.42;1.98;;;18.90;94.60;;;;;;5040715;28;20052;-81
2023/06/12 03:17:26;;;;;;;5.18;1.88;;;18.70;94.60;;;;;;5038427;28;20051;-80
2023/06/12 03:19:52;;;;;;;4.43;2.13;;;17.90;94.60;;;;;;5041726;28;20045;-80
2023/06/12 03:22:18;;;;;;;6.05;2.38;;;17.80;94.60;;;;;;5040662;28;20080;-80
2023/06/12 03:24:43;;;;;;;8.02;2.72;;;18.00;94.70;;;;;;5036623;28;20048;-81
2023/06/12 03:27:10;;;;;;;9.23;2.83;;;17.80;94.60;;;;;;5043682;28;20410;-81
2023/06/12 03:29:36;;;;;;;7.85;2.42;;;17.80;94.70;;;;;;5038063;28;20041;-78
2023/06/12 03:32:01;;;;;;;6.43;2.30;;;17.80;94.80;;;;;;5041179;28;20094;-81
2023/06/12 03:34:28;;;;;;;4.05;2.47;;;17.80;94.90;;;;;;5039402;28;20083;-80
2023/06/12 03:36:54;;;;;;;7.97;2.35;;;17.80;94.90;;;;;;5041842;28;20116;-80
2023/06/12 03:39:20;;;;;;;7.80;2.45;;;17.80;95.00;;;;;;5039444;28;20121;-79
2023/06/12 03:41:57;;;;;;;7.22;2.65;;;17.80;95.00;;;;;;5037614;28;20073;-79
2023/06/12 03:44:23;;;;;;;5.03;2.00;;;18.40;95.20;;;;;;5044952;28;20041;-80
2023/06/12 03:46:49;;;;;;;6.35;2.85;;;17.80;95.10;;;;;;5045160;28;20040;-80
2023/06/12 03:49:16;;;;;;;7.55;2.55;;;17.70;95.20;;;;;;5048573;28;20041;-79
2023/06/12 03:51:42;;;;;;;4.15;2.75;;;18.30;95.40;;;;;;5039817;28;20159;-80
2023/06/12 03:54:09;;;;;;;8.07;2.83;;;18.20;95.50;;;;;;5043291;28;20041;-81
2023/06/12 03:56:35;;;;;;;4.03;2.72;;;17.70;95.40;;;;;;5038653;28;20052;-81
2023/06/12 03:59:01;;;;;;;9.13;2.60;;;17.60;95.50;;;;;;5041743;28;20041;-81
2023/06/12 04:01:26;;;;;;;3.00;2.33;;;17.90;95.70;;;;;;5039341;28;20056;-80
2023/06/12 04:03:53;;;;;;;7.05;2.30;;;17.60;95.70;;;;;;5041165;28;20033;-81
2023/06/12 04:06:24;;;;;;;5.63;2.20;;;17.60;95.80;;;;;;5039507;28;20400;-81
2023/06/12 04:08:51;;;;;;;8.07;2.53;;;17.60;95.90;;;;;;5037799;28;20049;-82
2023/06/12 04:11:19;;;;;;;8.60;2.75;;;17.60;95.90;;;;;;5042279;28;20040;-81
2023/06/12 04:13:44;;;;;;;7.03;2.50;;;18.10;96.20;;;;;;5036794;28;20080;-81
2023/06/12 04:16:10;;;;;;;5.32;2.60;;;16.80;96.10;;;;;;5046202;28;20538;-81
2023/06/12 04:18:37;;;;;;;6.30;2.45;;;17.50;96.40;;;;;;5043860;28;20049;-81
2023/06/12 04:21:04;;;;;;;7.43;2.85;;;17.80;96.60;;;;;;5046332;28;20478;-81
2023/06/12 04:23:31;;;;;;;6.45;2.72;;;18.00;96.80;;;;;;5041364;28;20264;-81
2023/06/12 04:26:06;;;;;;;5.32;3.00;;;18.10;97.00;;;;;;5044539;28;20041;-82
2023/06/12 04:28:38;;;;;;;8.85;3.13;;;17.30;96.80;;;;;;5042521;28;20399;-81
2023/06/12 04:31:04;;;;;;;3.38;2.20;;;17.30;96.80;;;;;;5045483;28;20033;-79
2023/06/12 04:33:30;;;;;;;9.52;3.13;;;17.30;96.90;;;;;;5043523;28;20132;-80
2023/06/12 04:36:02;;;;;;;6.75;2.80;;;17.30;97.10;;;;;;5044153;28;20040;-81
2023/06/12 04:38:30;;;;;;;3.78;2.65;;;17.30;97.20;;;;;;5043432;28;20080;-80
2023/06/12 04:40:58;;;;;;;3.65;2.88;;;17.60;97.30;;;;;;5031676;28;20056;-80
2023/06/12 04:43:24;;;;;;;7.43;2.45;;;17.30;97.30;;;;;;5040401;28;20048;-80
2023/06/12 04:45:51;;;;;;;8.30;3.15;;;18.60;97.70;;;;;;5043479;28;20072;-80
2023/06/12 04:48:17;;;;;;;8.02;2.47;;;17.70;97.60;;;;;;5043153;28;20061;-81
2023/06/12 04:50:44;;;;;;;4.43;2.53;;;17.30;97.60;;;;;;5041027;28;20048;-80
2023/06/12 04:53:09;;;;;;;5.63;2.83;;;17.20;97.60;;;;;;5044275;28;20102;-80
2023/06/12 04:55:35;;;;;;;7.13;2.67;;;17.30;97.80;;;;;;5042783;28;20472;-80
2023/06/12 04:58:00;;;;;;;9.15;2.38;;;17.30;98.10;;;;;;5043782;28;20041;-80
2023/06/12 05:00:28;;;;;;;7.07;2.75;;;17.70;98.00;;;;;;5042871;28;20528;-80
2023/06/12 05:02:55;;;;;;;5.13;3.10;;;17.30;98.10;;;;;;5042868;28;20037;-79
2023/06/12 05:05:21;;;;;;;6.45;2.50;;;17.30;98.10;;;;;;5041648;28;20037;-79
2023/06/12 05:07:47;;;;;;;11.90;3.17;;;17.30;98.20;;;;;;5041301;28;20044;-80
2023/06/12 05:10:15;;;;;;;6.95;2.88;;;17.40;98.20;;;;;;5045764;28;20515;-79
2023/06/12 05:12:40;;;;;;;6.55;3.08;;;18.70;98.60;;;;;;5041571;28;20546;-80
2023/06/12 05:15:08;;;;;;;6.72;3.03;;;17.40;98.40;;;;;;5038833;28;20041;-80
2023/06/12 05:17:34;;;;;;;8.50;3.53;;;17.40;98.50;;;;;;5038277;28;20072;-80
2023/06/12 05:19:59;;;;;;;5.10;3.00;;;17.40;98.70;;;;;;5042819;28;20039;-79
2023/06/12 05:22:25;;;;;;;9.63;3.28;;;17.40;98.80;;;;;;5042790;28;20047;-79
2023/06/12 05:24:51;;;;;;;5.63;2.78;;;17.40;99.00;;;;;;5040502;28;20073;-79
2023/06/12 05:27:17;;;;;;;5.00;3.03;;;17.40;99.10;;;;;;5045071;28;20046;-80
2023/06/12 05:29:43;;;;;;;10.00;3.97;;;17.50;99.10;;;;;;5047462;28;20064;-80
2023/06/12 05:32:11;;;;;;;7.55;3.10;;;17.50;99.10;;;;;;5042548;28;20048;-80
2023/06/12 05:34:37;;;;;;;7.72;3.03;;;18.50;99.70;;;;;;5041695;28;20043;-80
2023/06/12 05:37:03;;;;;;;7.32;3.40;;;17.50;99.30;;;;;;5037249;28;20357;-80
2023/06/12 05:39:32;;;;;;;8.90;3.05;;;17.50;99.50;;;;;;5046100;28;20041;-79
2023/06/12 05:41:57;;;;;;;8.75;3.50;;;17.50;99.90;;;;;;5039337;28;20128;-80
2023/06/12 05:44:23;;;;;;;9.02;3.70;;;17.80;99.80;;;;;;5044696;28;20120;-79
2023/06/12 05:46:51;;;;;;;8.35;3.28;;;17.50;99.80;;;;;;5040465;28;20476;-80
2023/06/12 05:49:17;;;;;;;7.25;3.55;;;18.70;99.90;;;;;;5044038;28;20495;-80
2023/06/12 05:51:43;;;;;;;6.35;3.40;;;17.50;99.90;;;;;;5039543;28;20508;-80
2023/06/12 05:54:09;;;;;;;28.95;19.27;;;17.60;99.90;;;;;;5044947;28;20087;-79
2023/06/12 05:56:34;;;;;;;18.52;12.05;;;18.90;99.90;;;;;;5042175;28;20059;-79
2023/06/12 05:59:02;;;;;;;5.35;4.00;;;17.80;99.90;;;;;;5038364;28;20393;-80
2023/06/12 06:01:31;;;;;;;8.40;4.07;;;17.70;99.90;;;;;;5038300;28;20126;-80
2023/06/12 06:03:58;;;;;;;5.53;3.42;;;17.80;99.90;;;;;;5047769;28;20049;-79
2023/06/12 06:06:24;;;;;;;5.95;3.58;;;17.80;99.90;;;;;;5038679;28;20413;-81
2023/06/12 06:08:49;;;;;;;10.30;3.33;;;17.80;99.90;;;;;;5052387;28;20041;-79
2023/06/12 06:11:15;;;;;;;8.73;3.63;;;17.90;99.90;;;;;;5041786;28;20385;-79
2023/06/12 06:13:43;;;;;;;9.40;3.75;;;17.90;99.90;;;;;;5040440;28;20041;-80
2023/06/12 06:16:10;;;;;;;11.48;3.97;;;18.60;99.90;;;;;;5037467;28;20041;-79
2023/06/12 06:18:37;;;;;;;7.38;4.10;;;18.60;99.90;;;;;;5029999;28;20064;-79
2023/06/12 06:21:03;;;;;;;4.53;3.67;;;17.90;99.90;;;;;;5037518;28;20045;-78
2023/06/12 06:23:29;;;;;;;10.05;3.60;;;18.00;99.90;;;;;;5039418;28;20048;-85
2023/06/12 06:25:54;;;;;;;5.28;3.55;;;18.00;99.90;;;;;;5040725;28;20049;-85
2023/06/12 06:28:20;;;;;;;10.73;3.70;;;19.10;99.90;;;;;;5040081;28;20126;-80
2023/06/12 06:30:46;;;;;;;9.20;3.78;;;18.10;99.90;;;;;;5034987;28;20041;-78
2023/06/12 06:33:11;;;;;;;7.57;3.33;;;18.20;99.90;;;;;;5044405;28;20121;-80
2023/06/12 06:35:37;;;;;;;7.28;3.20;;;18.20;99.90;;;;;;5048037;28;20097;-81
2023/06/12 06:38:03;;;;;;;10.23;3.63;;;18.30;99.90;;;;;;5035986;28;20399;-73
2023/06/12 06:40:28;;;;;;;6.85;3.92;;;19.10;99.90;;;;;;5034880;28;20536;-74
2023/06/12 06:42:54;;;;;;;7.07;3.92;;;18.30;99.90;;;;;;5041292;28;20045;-74
2023/06/12 06:45:20;;;;;;;9.23;3.90;;;18.40;99.90;;;;;;5032964;28;20037;-74
2023/06/12 06:47:46;;;;;;;7.90;3.45;;;18.50;99.90;;;;;;5040816;28;20044;-74
2023/06/12 06:50:11;;;;;;;11.57;3.60;;;19.00;99.90;;;;;;5036112;28;20436;-73
2023/06/12 06:52:37;;;;;;;10.90;3.45;;;19.40;99.90;;;;;;5039587;28;20494;-74
2023/06/12 06:55:04;;;;;;;7.13;4.00;;;18.60;99.90;;;;;;5034522;28;20091;-74
2023/06/12 06:57:30;;;;;;;5.15;3.65;;;18.60;99.90;;;;;;5038801;28;20735;-74
2023/06/12 06:59:56;;;;;;;13.40;3.80;;;18.70;99.90;;;;;;5032466;28;20037;-74
2023/06/12 07:02:22;;;;;;;9.68;3.38;;;18.70;99.90;;;;;;5043105;28;20041;-74
2023/06/12 07:04:49;;;;;;;10.60;4.00;;;18.80;99.90;;;;;;5042242;28;20034;-75
2023/06/12 07:07:15;;;;;;;12.85;4.82;;;18.90;99.90;;;;;;5049443;28;20044;-75
2023/06/12 07:09:40;;;;;;;10.07;3.80;;;18.90;99.90;;;;;;5030641;28;20041;-74
2023/06/12 07:12:06;;;;;;;11.10;4.07;;;19.00;99.90;;;;;;5040790;28;20594;-74
2023/06/12 07:14:32;;;;;;;6.32;3.83;;;19.10;99.90;;;;;;5043549;28;20041;-75
2023/06/12 07:16:57;;;;;;;11.55;3.67;;;19.10;99.90;;;;;;5037838;28;20091;-74
2023/06/12 07:19:23;;;;;;;8.23;3.72;;;19.20;99.90;;;;;;5038097;28;20041;-74
2023/06/12 07:21:49;;;;;;;9.18;4.05;;;19.20;99.90;;;;;;5045649;28;20378;-77
2023/06/12 07:24:18;;;;;;;8.40;3.97;;;19.30;99.90;;;;;;5033024;28;20037;-77
2023/06/12 07:26:44;;;;;;;13.27;4.85;;;19.30;99.90;;;;;;5037386;28;20084;-78
2023/06/12 07:29:10;;;;;;;8.25;3.17;;;19.50;99.90;;;;;;5036823;28;20037;-78
2023/06/12 07:31:36;;;;;;;8.82;3.50;;;19.40;99.90;;;;;;5038662;28;20132;-77
2023/06/12 07:34:02;;;;;;;10.15;4.00;;;19.60;99.90;;;;;;5040169;28;20132;-75
2023/06/12 07:36:31;;;;;;;9.55;3.40;;;19.50;99.90;;;;;;5031367;28;20077;-78
2023/06/12 07:38:57;;;;;;;6.88;3.42;;;19.70;99.90;;;;;;5040297;28;20056;-78
2023/06/12 07:41:23;;;;;;;9.48;3.33;;;20.20;99.90;;;;;;5035083;28;20413;-77
2023/06/12 07:43:48;;;;;;;11.02;4.57;;;19.60;99.90;;;;;;5038366;28;20048;-78
2023/06/12 07:46:15;;;;;;;7.50;3.80;;;19.70;99.90;;;;;;5038654;28;20040;-78
2023/06/12 07:48:42;;;;;;;9.00;3.55;;;19.80;99.90;;;;;;5036765;28;20048;-77
2023/06/12 07:51:08;;;;;;;7.93;3.97;;;19.70;99.90;;;;;;5041959;28;20037;-78
2023/06/12 07:53:33;;;;;;;6.47;4.10;;;20.10;99.90;;;;;;5045944;28;20057;-77
2023/06/12 07:56:00;;;;;;;13.88;3.88;;;20.00;99.90;;;;;;5042526;28;20073;-76
2023/06/12 07:58:25;;;;;;;7.82;3.47;;;20.10;99.90;;;;;;5050132;28;20432;-77
2023/06/12 08:00:55;;;;;;;6.22;3.75;;;20.00;99.90;;;;;;5043305;28;20095;-75
2023/06/12 08:03:26;;;;;;;6.57;3.38;;;20.10;99.90;;;;;;5042141;28;20037;-75
2023/06/12 08:05:54;;;;;;;5.25;3.30;;;20.20;99.90;;;;;;5049133;28;20392;-76
2023/06/12 08:08:21;;;;;;;10.07;3.90;;;20.30;99.90;;;;;;5046100;28;20072;-75
2023/06/12 08:10:47;;;;;;;9.38;4.18;;;20.30;99.90;;;;;;5032570;28;20049;-75
2023/06/12 08:13:13;;;;;;;5.85;4.13;;;20.40;99.90;;;;;;5041795;28;20496;-75
2023/06/12 08:15:38;;;;;;;8.40;3.50;;;20.40;99.90;;;;;;5040040;28;20053;-75
2023/06/12 08:18:04;;;;;;;6.70;3.83;;;20.50;99.90;;;;;;5042238;28;20042;-76
2023/06/12 08:20:32;;;;;;;10.10;4.43;;;20.60;99.90;;;;;;5041235;28;20397;-75
2023/06/12 08:23:01;;;;;;;4.75;3.65;;;20.60;99.90;;;;;;5043217;28;20049;-75
2023/06/12 08:25:26;;;;;;;8.70;3.72;;;20.70;99.90;;;;;;5039831;28;20041;-75
2023/06/12 08:27:54;;;;;;;14.48;5.50;;;20.90;99.90;;;;;;5040493;28;20049;-75
2023/06/12 08:30:19;;;;;;;9.75;4.32;;;20.90;99.90;;;;;;5043115;28;20041;-76
2023/06/12 08:32:45;;;;;;;12.05;3.92;;;21.00;99.90;;;;;;5041778;28;20037;-75
2023/06/12 08:35:11;;;;;;;5.30;3.92;;;21.00;99.90;;;;;;5042209;28;20159;-75
2023/06/12 08:37:37;;;;;;;9.45;4.18;;;21.30;99.90;;;;;;5041778;28;20041;-76
2023/06/12 08:40:08;;;;;;;9.27;3.53;;;21.20;99.90;;;;;;5042016;28;20052;-76
2023/06/12 08:42:37;;;;;;;5.45;3.85;;;21.30;99.90;;;;;;5047435;28;20095;-75
2023/06/12 08:45:08;;;;;;;8.80;4.05;;;21.40;99.90;;;;;;5052121;28;20076;-76
2023/06/12 08:47:35;;;;;;;6.80;4.28;;;21.50;99.90;;;;;;5044005;28;20041;-77
2023/06/12 08:50:02;;;;;;;7.22;4.05;;;21.50;99.90;;;;;;5041538;28;20041;-76
2023/06/12 08:52:28;;;;;;;11.02;3.95;;;21.70;99.90;;;;;;5049962;28;20417;-77
2023/06/12 08:54:56;;;;;;;7.97;3.97;;;21.50;99.90;;;;;;5043979;28;20040;-74
2023/06/12 08:57:22;;;;;;;10.40;4.35;;;21.60;99.90;;;;;;5040642;28;20037;-76
2023/06/12 08:59:48;;;;;;;5.65;4.05;;;21.70;99.90;;;;;;5047344;28;20178;-76
2023/06/12 09:02:16;;;;;;;9.25;4.07;;;21.70;99.80;;;;;;5024388;28;20135;-78
2023/06/12 09:05:02;;;;;;;12.93;4.25;;;21.80;99.50;;;;;;5047946;28;20064;-77
2023/06/12 09:07:29;;;;;;;7.78;3.60;;;21.90;99.30;;;;;;5038351;28;20049;-75
2023/06/12 09:09:55;;;;;;;8.88;3.90;;;21.90;99.40;;;;;;5046778;28;20065;-74
2023/06/12 09:12:21;;;;;;;9.23;3.55;;;22.30;99.30;;;;;;5042352;28;20030;-75
2023/06/12 09:14:50;;;;;;;7.10;3.60;;;22.00;99.00;;;;;;5048837;28;20040;-76
2023/06/12 09:17:17;;;;;;;7.43;4.00;;;22.10;98.40;;;;;;5044516;28;20072;-76
2023/06/12 09:19:48;;;;;;;11.48;3.95;;;22.30;97.90;;;;;;5042751;28;20041;-73
2023/06/12 09:22:14;;;;;;;5.38;3.53;;;22.30;97.40;;;;;;5042827;28;20107;-75
2023/06/12 09:24:40;;;;;;;13.10;3.80;;;22.40;97.20;;;;;;5041834;28;20045;-77
2023/06/12 09:27:07;;;;;;;9.73;3.55;;;22.60;97.10;;;;;;5040426;28;20171;-76
2023/06/12 09:29:35;;;;;;;11.75;5.55;;;22.40;96.90;;;;;;5042289;28;20421;-77
2023/06/12 09:32:11;;;;;;;8.75;4.15;;;22.40;96.40;;;;;;5040185;28;20130;-76
2023/06/12 09:34:37;;;;;;;4.72;3.30;;;22.50;95.90;;;;;;5039733;28;20096;-76
2023/06/12 09:37:08;;;;;;;7.78;3.45;;;22.60;95.50;;;;;;5040008;28;20830;-78
2023/06/12 09:39:34;;;;;;;12.70;4.00;;;22.60;95.50;;;;;;5042778;28;20048;-77
2023/06/12 09:42:01;;;;;;;4.40;3.38;;;23.40;96.10;;;;;;5044637;28;20045;-77
2023/06/12 09:44:29;;;;;;;11.45;3.58;;;22.80;95.30;;;;;;5044051;28;20068;-78
2023/06/12 09:47:05;;;;;;;6.47;3.33;;;23.00;95.00;;;;;;5055707;28;20065;-77
2023/06/12 09:49:32;;;;;;;5.40;3.75;;;22.90;94.60;;;;;;5041273;28;20401;-77
2023/06/12 09:52:03;;;;;;;6.82;3.90;;;23.10;95.00;;;;;;5045339;28;20048;-76
2023/06/12 09:54:31;;;;;;;6.47;4.10;;;23.00;95.00;;;;;;5052258;28;20040;-77
2023/06/12 09:56:58;;;;;;;4.88;3.15;;;23.00;95.20;;;;;;5045354;28;20084;-77
2023/06/12 09:59:27;;;;;;;5.18;3.67;;;23.10;95.40;;;;;;5039053;28;20069;-76
2023/06/12 10:01:59;;;;;;;5.00;3.28;;;23.30;95.50;;;;;;5049480;28;20109;-77
2023/06/12 10:04:34;;;;;;;4.22;3.65;;;23.40;94.30;;;;;;5041306;28;20041;-77
2023/06/12 10:07:11;;;;;;;5.43;3.10;;;23.50;94.20;;;;;;5030308;28;20060;-76
2023/06/12 10:09:39;;;;;;;8.43;4.22;;;23.50;94.00;;;;;;5039529;28;20064;-75
2023/06/12 10:12:06;;;;;;;6.72;3.83;;;23.60;93.20;;;;;;5033006;28;20037;-77
2023/06/12 10:14:33;;;;;;;6.57;3.60;;;23.70;93.00;;;;;;5043776;28;20033;-77
2023/06/12 10:17:00;;;;;;;12.00;10.60;;;23.70;93.30;;;;;;5037465;28;20037;-75
2023/06/12 10:19:26;;;;;;;6.28;3.90;;;23.80;93.60;;;;;;5044068;28;20068;-77
2023/06/12 10:21:56;;;;;;;7.93;3.97;;;23.80;93.50;;;;;;5047355;28;20057;-77
2023/06/12 10:24:23;;;;;;;6.65;4.03;;;24.40;93.30;;;;;;5040725;28;20153;-77
2023/06/12 10:26:52;;;;;;;9.82;3.75;;;24.00;93.50;;;;;;5037739;28;20053;-77
2023/06/12 10:29:25;;;;;;;6.72;3.55;;;24.10;93.40;;;;;;5039709;28;20037;-77
2023/06/12 10:31:51;;;;;;;6.32;3.58;;;24.20;93.60;;;;;;5035520;28;20041;-78
2023/06/12 10:34:17;;;;;;;7.85;3.90;;;24.30;93.80;;;;;;5033039;28;20500;-78
2023/06/12 10:36:47;;;;;;;6.50;3.45;;;24.40;93.60;;;;;;5037489;28;20057;-77
2023/06/12 10:39:18;;;;;;;5.88;3.97;;;24.50;93.40;;;;;;5031209;28;20053;-77
2023/06/12 10:41:57;;;;;;;6.32;3.88;;;24.50;93.50;;;;;;5038509;28;20394;-78
2023/06/12 10:44:41;;;;;;;7.93;4.07;;;24.60;93.00;;;;;;5047895;28;20427;-77
2023/06/12 10:47:23;;;;;;;13.55;10.50;;;24.60;93.80;;;;;;5043631;28;20059;-77
2023/06/12 10:49:58;;;;;;;10.60;6.30;;;24.80;93.60;;;;;;5038880;28;20600;-79
2023/06/12 10:52:24;;;;;;;7.25;4.15;;;24.90;93.30;;;;;;5040179;28;20110;-80
2023/06/12 10:55:15;;;;;;;9.32;3.80;;;24.90;93.10;;;;;;5044536;28;20083;-81
2023/06/12 10:57:52;;;;;;;5.63;4.25;;;25.00;92.40;;;;;;5036409;28;20064;-81
2023/06/12 11:00:20;;;;;;;7.65;4.05;;;25.10;92.40;;;;;;5083878;22;20047;-81
2023/06/12 11:02:58;;;;;;;6.32;4.10;;;25.20;92.50;;;;;;5094233;28;20126;-82
2023/06/12 11:05:25;;;;;;;6.97;4.85;;;25.20;92.40;;;;;;5069006;28;20411;-81
2023/06/12 11:07:57;;;;;;;5.70;3.50;;;25.30;92.70;;;;;;5074206;28;20044;-81
2023/06/12 11:10:23;;;;;;;7.00;4.20;;;25.50;92.70;;;;;;5074846;28;20059;-80
2023/06/12 11:12:49;;;;;;;4.50;3.80;;;25.60;92.90;;;;;;5089276;28;20036;-81
2023/06/12 11:15:15;;;;;;;6.78;3.63;;;25.80;92.70;;;;;;5082432;28;20408;-81
2023/06/12 11:17:42;;;;;;;8.88;4.00;;;25.90;92.60;;;;;;5082141;28;20051;-82
2023/06/12 11:20:09;;;;;;;6.60;4.57;;;26.00;92.40;;;;;;5061811;28;20048;-81
2023/06/12 11:22:35;;;;;;;9.13;4.57;;;26.20;92.20;;;;;;5079958;28;20040;-81
2023/06/12 11:25:03;;;;;;;6.65;4.00;;;26.30;92.00;;;;;;5071040;28;20047;-81
2023/06/12 11:27:30;;;;;;;10.13;3.67;;;26.40;91.60;;;;;;5068085;28;20054;-80
2023/06/12 11:30:05;;;;;;;14.35;11.25;;;26.50;91.60;;;;;;5076356;28;20051;-81
2023/06/12 11:32:31;;;;;;;5.63;5.03;;;26.60;91.70;;;;;;5079756;28;20044;-79
2023/06/12 11:34:57;;;;;;;8.00;5.28;;;26.70;91.30;;;;;;5068364;28;20041;-82
2023/06/12 11:37:25;;;;;;;7.55;4.05;;;26.80;91.70;;;;;;5077457;28;20044;-82
2023/06/12 11:40:11;;;;;;;9.55;4.65;;;26.90;91.30;;;;;;5080365;28;20039;-81
2023/06/12 11:42:44;;;;;;;8.00;4.32;;;27.10;91.10;;;;;;5066899;28;20029;-82
2023/06/12 11:45:11;;;;;;;12.15;4.68;;;27.30;89.70;;;;;;5067478;28;20062;-82
2023/06/12 11:47:41;;;;;;;7.22;4.30;;;27.40;89.10;;;;;;5076947;28;20149;-82
2023/06/12 11:50:15;;;;;;;5.70;5.13;;;27.50;88.90;;;;;;5076399;28;20033;-82
2023/06/12 11:52:42;;;;;;;7.60;4.07;;;27.60;86.10;;;;;;5070251;28;20068;-82
2023/06/12 11:55:09;;;;;;;8.80;4.78;;;27.90;87.40;;;;;;5087218;28;20542;-81
2023/06/12 11:57:36;;;;;;;5.63;5.10;;;27.80;86.60;;;;;;5084598;28;20044;-81
2023/06/12 12:00:13;;;;;;;7.50;5.05;;;27.90;86.10;;;;;;5086373;28;20135;-81
2023/06/12 12:02:49;;;;;;;7.10;4.40;;;28.00;85.20;;;;;;5068374;28;20136;-82
2023/06/12 12:05:22;;;;;;;7.53;4.40;;;28.20;84.70;;;;;;5076410;28;20039;-82
2023/06/12 12:07:59;;;;;;;6.05;4.18;;;28.30;84.30;;;;;;5052512;28;20514;-81
2023/06/12 12:10:29;;;;;;;6.10;4.70;;;28.50;84.30;;;;;;5077208;28;20545;-81
2023/06/12 12:13:00;;;;;;;5.78;4.50;;;28.60;82.30;;;;;;5081145;28;20071;-83
2023/06/12 12:15:29;;;;;;;6.05;4.68;;;28.70;81.60;;;;;;5080902;28;20043;-81
2023/06/12 12:17:55;;;;;;;9.02;5.10;;;28.80;82.50;;;;;;5079000;28;20055;-81
2023/06/12 12:20:22;;;;;;;5.55;4.47;;;28.80;82.00;;;;;;5078106;28;20033;-78
2023/06/12 12:22:59;;;;;;;7.97;4.78;;;29.00;82.00;;;;;;5081470;28;20032;-82
2023/06/12 12:25:27;;;;;;;5.18;4.60;;;29.00;81.30;;;;;;5080106;28;20128;-83
2023/06/12 12:27:54;;;;;;;5.05;4.25;;;29.10;81.10;;;;;;5068721;28;20040;-84
2023/06/12 12:30:21;;;;;;;6.80;4.72;;;29.10;80.80;;;;;;5080723;28;20501;-82
2023/06/12 12:32:58;;;;;;;7.35;4.80;;;29.00;81.60;;;;;;5062941;28;20466;-82
2023/06/12 12:35:25;;;;;;;5.82;5.13;;;28.90;80.80;;;;;;5080550;28;20068;-81
2023/06/12 12:37:52;;;;;;;6.20;5.38;;;28.80;80.30;;;;;;5075432;28;20040;-83
2023/06/12 12:40:18;;;;;;;7.18;5.18;;;28.60;80.60;;;;;;5085851;28;20047;-82
2023/06/12 12:42:46;;;;;;;8.35;4.88;;;28.40;79.90;;;;;;5081038;28;20048;-79
2023/06/12 12:45:13;;;;;;;7.18;4.63;;;28.30;80.10;;;;;;5082634;28;20044;-79
2023/06/12 12:47:47;;;;;;;11.18;5.28;;;28.50;79.40;;;;;;5086964;28;20040;-79